sensor_id;sensor_type;location;lat;lon;timestamp;P1;durP1;ratioP1;P2;durP2;ratioP2
13698;SDS011;6921;53.642;9.956;2022-11-15T00:02:02;47.00;;;26.30;;
13698;SDS011;6921;53.642;9.956;2022-11-15T00:04:06;42.33;;;25.40;;
13698;SDS011;6921;53.642;9.956;2022-11-15T00:06:10;51.33;;;27.37;;
13698;SDS011;6921;53.642;9.956;2022-11-15T00:08:14;48.07;;;27.17;;
13698;SDS011;6921;53.642;9.956;2022-11-15T00:10:17;46.40;;;26.43;;
13698;SDS011;6921;53.642;9.956;2022-11-15T00:12:20;50.37;;;26.50;;
13698;SDS011;6921;53.642;9.956;2022-11-15T00:14:24;46.07;;;27.67;;
13698;SDS011;6921;53.642;9.956;2022-11-15T00:16:27;49.30;;;26.27;;
13698;SDS011;6921;53.642;9.956;2022-11-15T00:18:31;45.37;;;26.90;;
13698;SDS011;6921;53.642;9.956;2022-11-15T00:20:34;48.50;;;27.40;;
13698;SDS011;6921;53.642;9.956;2022-11-15T00:22:38;48.33;;;27.40;;
13698;SDS011;6921;53.642;9.956;2022-11-15T00:24:42;45.33;;;26.00;;
13698;SDS011;6921;53.642;9.956;2022-11-15T00:26:45;48.80;;;26.57;;
13698;SDS011;6921;53.642;9.956;2022-11-15T00:28:48;43.67;;;25.00;;
13698;SDS011;6921;53.642;9.956;2022-11-15T00:30:59;47.07;;;28.03;;
13698;SDS011;6921;53.642;9.956;2022-11-15T00:33:02;49.43;;;28.10;;
13698;SDS011;6921;53.642;9.956;2022-11-15T00:35:06;48.83;;;28.30;;
13698;SDS011;6921;53.642;9.956;2022-11-15T00:37:09;46.57;;;27.17;;
13698;SDS011;6921;53.642;9.956;2022-11-15T00:39:14;50.70;;;27.97;;
13698;SDS011;6921;53.642;9.956;2022-11-15T00:41:19;52.87;;;26.20;;
13698;SDS011;6921;53.642;9.956;2022-11-15T00:43:22;47.50;;;27.37;;
13698;SDS011;6921;53.642;9.956;2022-11-15T00:45:26;48.57;;;27.50;;
13698;SDS011;6921;53.642;9.956;2022-11-15T00:47:29;45.63;;;25.37;;
13698;SDS011;6921;53.642;9.956;2022-11-15T00:49:32;50.20;;;27.83;;
13698;SDS011;6921;53.642;9.956;2022-11-15T00:51:35;46.73;;;26.87;;
13698;SDS011;6921;53.642;9.956;2022-11-15T00:53:39;47.63;;;26.80;;
13698;SDS011;6921;53.642;9.956;2022-11-15T00:55:43;49.93;;;26.53;;
13698;SDS011;6921;53.642;9.956;2022-11-15T00:57:47;48.00;;;27.13;;
13698;SDS011;6921;53.642;9.956;2022-11-15T00:59:50;49.53;;;26.23;;
13698;SDS011;6921;53.642;9.956;2022-11-15T01:01:53;45.37;;;27.17;;
13698;SDS011;6921;53.642;9.956;2022-11-15T01:03:56;46.27;;;27.90;;
13698;SDS011;6921;53.642;9.956;2022-11-15T01:06:02;50.53;;;26.90;;
13698;SDS011;6921;53.642;9.956;2022-11-15T01:08:05;47.67;;;25.57;;
13698;SDS011;6921;53.642;9.956;2022-11-15T01:10:09;42.50;;;25.93;;
13698;SDS011;6921;53.642;9.956;2022-11-15T01:12:13;47.40;;;26.27;;
13698;SDS011;6921;53.642;9.956;2022-11-15T01:14:17;46.40;;;26.33;;
13698;SDS011;6921;53.642;9.956;2022-11-15T01:16:25;43.67;;;26.57;;
13698;SDS011;6921;53.642;9.956;2022-11-15T01:18:28;44.33;;;26.17;;
13698;SDS011;6921;53.642;9.956;2022-11-15T01:20:31;46.67;;;26.20;;
13698;SDS011;6921;53.642;9.956;2022-11-15T01:22:35;45.33;;;26.27;;
13698;SDS011;6921;53.642;9.956;2022-11-15T01:24:38;45.10;;;25.57;;
13698;SDS011;6921;53.642;9.956;2022-11-15T01:26:41;41.60;;;25.83;;
13698;SDS011;6921;53.642;9.956;2022-11-15T01:28:46;41.37;;;24.93;;
13698;SDS011;6921;53.642;9.956;2022-11-15T01:30:49;41.47;;;24.70;;
13698;SDS011;6921;53.642;9.956;2022-11-15T01:32:53;46.07;;;25.70;;
13698;SDS011;6921;53.642;9.956;2022-11-15T01:34:56;37.87;;;24.10;;
13698;SDS011;6921;53.642;9.956;2022-11-15T01:36:59;40.40;;;24.10;;
13698;SDS011;6921;53.642;9.956;2022-11-15T01:39:03;38.77;;;23.50;;
13698;SDS011;6921;53.642;9.956;2022-11-15T01:41:06;37.90;;;22.80;;
13698;SDS011;6921;53.642;9.956;2022-11-15T01:43:19;37.93;;;23.50;;
13698;SDS011;6921;53.642;9.956;2022-11-15T01:45:23;44.37;;;24.43;;
13698;SDS011;6921;53.642;9.956;2022-11-15T01:47:28;40.40;;;23.23;;
13698;SDS011;6921;53.642;9.956;2022-11-15T01:49:32;37.13;;;23.13;;
13698;SDS011;6921;53.642;9.956;2022-11-15T01:51:36;38.53;;;22.73;;
13698;SDS011;6921;53.642;9.956;2022-11-15T01:53:40;39.07;;;23.47;;
13698;SDS011;6921;53.642;9.956;2022-11-15T01:55:44;36.63;;;22.47;;
13698;SDS011;6921;53.642;9.956;2022-11-15T01:57:49;37.70;;;22.37;;
13698;SDS011;6921;53.642;9.956;2022-11-15T01:59:53;42.80;;;23.77;;
13698;SDS011;6921;53.642;9.956;2022-11-15T02:01:58;37.77;;;23.07;;
13698;SDS011;6921;53.642;9.956;2022-11-15T02:04:02;37.83;;;23.03;;
13698;SDS011;6921;53.642;9.956;2022-11-15T02:06:06;37.10;;;22.53;;
13698;SDS011;6921;53.642;9.956;2022-11-15T02:08:10;37.27;;;22.90;;
13698;SDS011;6921;53.642;9.956;2022-11-15T02:10:22;39.70;;;23.23;;
13698;SDS011;6921;53.642;9.956;2022-11-15T02:12:25;38.07;;;23.33;;
13698;SDS011;6921;53.642;9.956;2022-11-15T02:14:29;42.27;;;22.80;;
13698;SDS011;6921;53.642;9.956;2022-11-15T02:16:34;41.97;;;23.57;;
13698;SDS011;6921;53.642;9.956;2022-11-15T02:18:41;34.33;;;21.23;;
13698;SDS011;6921;53.642;9.956;2022-11-15T02:20:49;41.90;;;22.80;;
13698;SDS011;6921;53.642;9.956;2022-11-15T02:22:58;40.33;;;22.30;;
13698;SDS011;6921;53.642;9.956;2022-11-15T02:25:09;37.90;;;22.27;;
13698;SDS011;6921;53.642;9.956;2022-11-15T02:27:21;37.57;;;21.57;;
13698;SDS011;6921;53.642;9.956;2022-11-15T02:29:29;35.80;;;21.67;;
13698;SDS011;6921;53.642;9.956;2022-11-15T02:31:39;39.37;;;22.30;;
13698;SDS011;6921;53.642;9.956;2022-11-15T02:33:45;36.60;;;21.53;;
13698;SDS011;6921;53.642;9.956;2022-11-15T02:35:51;32.30;;;20.73;;
13698;SDS011;6921;53.642;9.956;2022-11-15T02:37:56;39.43;;;22.60;;
13698;SDS011;6921;53.642;9.956;2022-11-15T02:40:01;38.93;;;22.23;;
13698;SDS011;6921;53.642;9.956;2022-11-15T02:42:09;38.37;;;22.40;;
13698;SDS011;6921;53.642;9.956;2022-11-15T02:44:29;34.50;;;20.50;;
13698;SDS011;6921;53.642;9.956;2022-11-15T02:46:36;37.40;;;21.37;;
13698;SDS011;6921;53.642;9.956;2022-11-15T02:48:58;41.30;;;21.50;;
13698;SDS011;6921;53.642;9.956;2022-11-15T02:51:02;36.17;;;21.60;;
13698;SDS011;6921;53.642;9.956;2022-11-15T02:53:05;40.10;;;22.13;;
13698;SDS011;6921;53.642;9.956;2022-11-15T02:55:25;38.97;;;22.27;;
13698;SDS011;6921;53.642;9.956;2022-11-15T02:57:31;37.97;;;21.17;;
13698;SDS011;6921;53.642;9.956;2022-11-15T02:59:49;36.73;;;21.07;;
13698;SDS011;6921;53.642;9.956;2022-11-15T03:02:02;35.20;;;21.60;;
13698;SDS011;6921;53.642;9.956;2022-11-15T03:04:13;38.67;;;21.57;;
13698;SDS011;6921;53.642;9.956;2022-11-15T03:06:20;33.93;;;20.90;;
13698;SDS011;6921;53.642;9.956;2022-11-15T03:08:29;37.00;;;21.67;;
13698;SDS011;6921;53.642;9.956;2022-11-15T03:10:36;34.00;;;19.47;;
13698;SDS011;6921;53.642;9.956;2022-11-15T03:12:45;34.63;;;20.57;;
13698;SDS011;6921;53.642;9.956;2022-11-15T03:14:50;37.10;;;21.60;;
13698;SDS011;6921;53.642;9.956;2022-11-15T03:16:57;34.67;;;20.47;;
13698;SDS011;6921;53.642;9.956;2022-11-15T03:19:02;33.50;;;19.67;;
13698;SDS011;6921;53.642;9.956;2022-11-15T03:21:09;32.70;;;21.03;;
13698;SDS011;6921;53.642;9.956;2022-11-15T03:23:14;33.93;;;20.83;;
13698;SDS011;6921;53.642;9.956;2022-11-15T03:25:18;37.03;;;19.90;;
13698;SDS011;6921;53.642;9.956;2022-11-15T03:27:24;33.73;;;19.83;;
13698;SDS011;6921;53.642;9.956;2022-11-15T03:29:29;32.30;;;20.73;;
13698;SDS011;6921;53.642;9.956;2022-11-15T03:31:36;34.33;;;19.60;;
13698;SDS011;6921;53.642;9.956;2022-11-15T03:33:51;31.07;;;19.30;;
13698;SDS011;6921;53.642;9.956;2022-11-15T03:35:56;36.57;;;20.67;;
13698;SDS011;6921;53.642;9.956;2022-11-15T03:38:03;36.00;;;20.33;;
13698;SDS011;6921;53.642;9.956;2022-11-15T03:40:08;36.07;;;20.67;;
13698;SDS011;6921;53.642;9.956;2022-11-15T03:42:15;34.90;;;21.30;;
13698;SDS011;6921;53.642;9.956;2022-11-15T03:44:22;34.87;;;19.63;;
13698;SDS011;6921;53.642;9.956;2022-11-15T03:46:28;34.67;;;20.77;;
13698;SDS011;6921;53.642;9.956;2022-11-15T03:48:35;36.27;;;19.83;;
13698;SDS011;6921;53.642;9.956;2022-11-15T03:50:40;34.00;;;20.23;;
13698;SDS011;6921;53.642;9.956;2022-11-15T03:52:44;33.63;;;19.50;;
13698;SDS011;6921;53.642;9.956;2022-11-15T03:54:50;32.63;;;20.67;;
13698;SDS011;6921;53.642;9.956;2022-11-15T03:56:53;31.83;;;19.87;;
13698;SDS011;6921;53.642;9.956;2022-11-15T03:58:57;36.50;;;20.67;;
13698;SDS011;6921;53.642;9.956;2022-11-15T04:01:00;34.90;;;20.17;;
13698;SDS011;6921;53.642;9.956;2022-11-15T04:03:04;33.07;;;18.50;;
13698;SDS011;6921;53.642;9.956;2022-11-15T04:05:08;31.57;;;19.63;;
13698;SDS011;6921;53.642;9.956;2022-11-15T04:07:11;34.27;;;19.63;;
13698;SDS011;6921;53.642;9.956;2022-11-15T04:09:15;33.40;;;20.83;;
13698;SDS011;6921;53.642;9.956;2022-11-15T04:11:19;34.93;;;20.23;;
13698;SDS011;6921;53.642;9.956;2022-11-15T04:13:23;31.63;;;18.40;;
13698;SDS011;6921;53.642;9.956;2022-11-15T04:15:26;35.10;;;20.70;;
13698;SDS011;6921;53.642;9.956;2022-11-15T04:17:30;31.60;;;19.30;;
13698;SDS011;6921;53.642;9.956;2022-11-15T04:19:33;31.93;;;19.97;;
13698;SDS011;6921;53.642;9.956;2022-11-15T04:21:53;32.83;;;19.57;;
13698;SDS011;6921;53.642;9.956;2022-11-15T04:24:15;31.70;;;19.40;;
13698;SDS011;6921;53.642;9.956;2022-11-15T04:26:20;33.13;;;19.47;;
13698;SDS011;6921;53.642;9.956;2022-11-15T04:28:23;33.07;;;19.10;;
13698;SDS011;6921;53.642;9.956;2022-11-15T04:30:27;31.87;;;19.67;;
13698;SDS011;6921;53.642;9.956;2022-11-15T04:32:29;32.67;;;18.37;;
13698;SDS011;6921;53.642;9.956;2022-11-15T04:34:32;30.27;;;19.27;;
13698;SDS011;6921;53.642;9.956;2022-11-15T04:36:36;33.40;;;19.80;;
13698;SDS011;6921;53.642;9.956;2022-11-15T04:38:57;33.90;;;19.67;;
13698;SDS011;6921;53.642;9.956;2022-11-15T04:41:00;34.40;;;19.93;;
13698;SDS011;6921;53.642;9.956;2022-11-15T04:43:05;38.00;;;20.27;;
13698;SDS011;6921;53.642;9.956;2022-11-15T04:45:08;34.20;;;20.37;;
13698;SDS011;6921;53.642;9.956;2022-11-15T04:47:12;34.60;;;20.80;;
13698;SDS011;6921;53.642;9.956;2022-11-15T04:49:15;39.13;;;21.93;;
13698;SDS011;6921;53.642;9.956;2022-11-15T04:51:18;32.50;;;19.93;;
13698;SDS011;6921;53.642;9.956;2022-11-15T04:53:22;29.90;;;20.03;;
13698;SDS011;6921;53.642;9.956;2022-11-15T04:55:25;34.67;;;20.50;;
13698;SDS011;6921;53.642;9.956;2022-11-15T04:57:28;41.70;;;21.67;;
13698;SDS011;6921;53.642;9.956;2022-11-15T04:59:36;33.50;;;20.33;;
13698;SDS011;6921;53.642;9.956;2022-11-15T05:01:39;35.43;;;20.57;;
13698;SDS011;6921;53.642;9.956;2022-11-15T05:03:45;32.50;;;19.07;;
13698;SDS011;6921;53.642;9.956;2022-11-15T05:06:06;38.47;;;21.67;;
13698;SDS011;6921;53.642;9.956;2022-11-15T05:08:09;40.07;;;20.50;;
13698;SDS011;6921;53.642;9.956;2022-11-15T05:10:12;37.63;;;20.23;;
13698;SDS011;6921;53.642;9.956;2022-11-15T05:12:16;35.23;;;21.30;;
13698;SDS011;6921;53.642;9.956;2022-11-15T05:14:19;33.03;;;20.50;;
13698;SDS011;6921;53.642;9.956;2022-11-15T05:16:24;34.17;;;21.00;;
13698;SDS011;6921;53.642;9.956;2022-11-15T05:18:27;38.13;;;20.90;;
13698;SDS011;6921;53.642;9.956;2022-11-15T05:20:30;34.40;;;20.43;;
13698;SDS011;6921;53.642;9.956;2022-11-15T05:22:34;37.97;;;21.87;;
13698;SDS011;6921;53.642;9.956;2022-11-15T05:24:37;39.17;;;22.43;;
13698;SDS011;6921;53.642;9.956;2022-11-15T05:26:40;37.27;;;20.53;;
13698;SDS011;6921;53.642;9.956;2022-11-15T05:28:44;34.10;;;19.97;;
13698;SDS011;6921;53.642;9.956;2022-11-15T05:30:47;34.83;;;21.17;;
13698;SDS011;6921;53.642;9.956;2022-11-15T05:32:52;36.70;;;21.60;;
13698;SDS011;6921;53.642;9.956;2022-11-15T05:34:56;34.70;;;21.03;;
13698;SDS011;6921;53.642;9.956;2022-11-15T05:36:59;34.93;;;20.83;;
13698;SDS011;6921;53.642;9.956;2022-11-15T05:39:03;35.93;;;21.30;;
13698;SDS011;6921;53.642;9.956;2022-11-15T05:41:09;36.90;;;22.03;;
13698;SDS011;6921;53.642;9.956;2022-11-15T05:43:12;36.17;;;21.40;;
13698;SDS011;6921;53.642;9.956;2022-11-15T05:45:16;34.70;;;21.13;;
13698;SDS011;6921;53.642;9.956;2022-11-15T05:47:27;40.60;;;21.40;;
13698;SDS011;6921;53.642;9.956;2022-11-15T05:49:33;34.43;;;21.67;;
13698;SDS011;6921;53.642;9.956;2022-11-15T05:51:38;37.13;;;21.23;;
13698;SDS011;6921;53.642;9.956;2022-11-15T05:53:42;34.80;;;21.27;;
13698;SDS011;6921;53.642;9.956;2022-11-15T05:55:46;35.33;;;20.93;;
13698;SDS011;6921;53.642;9.956;2022-11-15T05:57:49;35.83;;;21.13;;
13698;SDS011;6921;53.642;9.956;2022-11-15T05:59:53;31.23;;;20.33;;
13698;SDS011;6921;53.642;9.956;2022-11-15T06:01:57;33.77;;;20.90;;
13698;SDS011;6921;53.642;9.956;2022-11-15T06:04:00;33.23;;;20.63;;
13698;SDS011;6921;53.642;9.956;2022-11-15T06:06:05;34.37;;;21.40;;
13698;SDS011;6921;53.642;9.956;2022-11-15T06:08:13;33.30;;;20.93;;
13698;SDS011;6921;53.642;9.956;2022-11-15T06:10:17;34.83;;;20.97;;
13698;SDS011;6921;53.642;9.956;2022-11-15T06:12:20;35.93;;;21.27;;
13698;SDS011;6921;53.642;9.956;2022-11-15T06:14:23;34.23;;;20.77;;
13698;SDS011;6921;53.642;9.956;2022-11-15T06:16:26;32.00;;;20.07;;
13698;SDS011;6921;53.642;9.956;2022-11-15T06:18:31;31.13;;;19.63;;
13698;SDS011;6921;53.642;9.956;2022-11-15T06:20:35;35.57;;;21.47;;
13698;SDS011;6921;53.642;9.956;2022-11-15T06:22:40;33.67;;;20.97;;
13698;SDS011;6921;53.642;9.956;2022-11-15T06:24:46;35.83;;;21.57;;
13698;SDS011;6921;53.642;9.956;2022-11-15T06:26:50;33.77;;;20.47;;
13698;SDS011;6921;53.642;9.956;2022-11-15T06:28:53;32.57;;;21.27;;
13698;SDS011;6921;53.642;9.956;2022-11-15T06:31:01;35.67;;;21.90;;
13698;SDS011;6921;53.642;9.956;2022-11-15T06:33:05;31.40;;;20.17;;
13698;SDS011;6921;53.642;9.956;2022-11-15T06:35:09;32.27;;;20.47;;
13698;SDS011;6921;53.642;9.956;2022-11-15T06:37:13;30.57;;;20.70;;
13698;SDS011;6921;53.642;9.956;2022-11-15T06:39:17;30.33;;;19.33;;
13698;SDS011;6921;53.642;9.956;2022-11-15T06:41:21;35.17;;;20.73;;
13698;SDS011;6921;53.642;9.956;2022-11-15T06:43:24;31.00;;;20.30;;
13698;SDS011;6921;53.642;9.956;2022-11-15T06:45:28;31.43;;;20.43;;
13698;SDS011;6921;53.642;9.956;2022-11-15T06:47:31;29.03;;;19.00;;
13698;SDS011;6921;53.642;9.956;2022-11-15T06:49:34;30.47;;;19.43;;
13698;SDS011;6921;53.642;9.956;2022-11-15T06:51:38;29.70;;;18.93;;
13698;SDS011;6921;53.642;9.956;2022-11-15T06:53:41;29.83;;;19.40;;
13698;SDS011;6921;53.642;9.956;2022-11-15T06:55:46;30.23;;;18.93;;
13698;SDS011;6921;53.642;9.956;2022-11-15T06:57:55;31.60;;;20.17;;
13698;SDS011;6921;53.642;9.956;2022-11-15T06:59:58;32.40;;;19.57;;
13698;SDS011;6921;53.642;9.956;2022-11-15T07:02:01;31.50;;;19.90;;
13698;SDS011;6921;53.642;9.956;2022-11-15T07:04:05;30.27;;;19.60;;
13698;SDS011;6921;53.642;9.956;2022-11-15T07:06:08;28.20;;;19.13;;
13698;SDS011;6921;53.642;9.956;2022-11-15T07:08:12;31.43;;;19.00;;
13698;SDS011;6921;53.642;9.956;2022-11-15T07:10:15;29.67;;;18.90;;
13698;SDS011;6921;53.642;9.956;2022-11-15T07:12:20;29.67;;;19.33;;
13698;SDS011;6921;53.642;9.956;2022-11-15T07:14:23;29.73;;;19.50;;
13698;SDS011;6921;53.642;9.956;2022-11-15T07:16:26;29.47;;;19.33;;
13698;SDS011;6921;53.642;9.956;2022-11-15T07:18:29;33.67;;;18.90;;
13698;SDS011;6921;53.642;9.956;2022-11-15T07:20:33;30.63;;;19.37;;
13698;SDS011;6921;53.642;9.956;2022-11-15T07:22:36;28.43;;;18.47;;
13698;SDS011;6921;53.642;9.956;2022-11-15T07:24:39;28.67;;;18.90;;
13698;SDS011;6921;53.642;9.956;2022-11-15T07:26:43;31.17;;;19.00;;
13698;SDS011;6921;53.642;9.956;2022-11-15T07:28:47;29.30;;;19.23;;
13698;SDS011;6921;53.642;9.956;2022-11-15T07:30:51;31.80;;;20.27;;
13698;SDS011;6921;53.642;9.956;2022-11-15T07:32:54;30.97;;;19.27;;
13698;SDS011;6921;53.642;9.956;2022-11-15T07:34:57;28.87;;;18.63;;
13698;SDS011;6921;53.642;9.956;2022-11-15T07:37:01;32.43;;;19.93;;
13698;SDS011;6921;53.642;9.956;2022-11-15T07:39:06;31.63;;;19.23;;
13698;SDS011;6921;53.642;9.956;2022-11-15T07:41:10;35.93;;;19.47;;
13698;SDS011;6921;53.642;9.956;2022-11-15T07:43:13;30.17;;;19.67;;
13698;SDS011;6921;53.642;9.956;2022-11-15T07:45:18;28.27;;;18.47;;
13698;SDS011;6921;53.642;9.956;2022-11-15T07:47:21;29.30;;;19.57;;
13698;SDS011;6921;53.642;9.956;2022-11-15T07:49:25;28.47;;;17.97;;
13698;SDS011;6921;53.642;9.956;2022-11-15T07:51:28;28.00;;;19.03;;
13698;SDS011;6921;53.642;9.956;2022-11-15T07:53:31;29.07;;;18.93;;
13698;SDS011;6921;53.642;9.956;2022-11-15T07:55:35;28.70;;;18.70;;
13698;SDS011;6921;53.642;9.956;2022-11-15T07:57:38;29.90;;;19.73;;
13698;SDS011;6921;53.642;9.956;2022-11-15T07:59:41;27.70;;;18.30;;
13698;SDS011;6921;53.642;9.956;2022-11-15T08:01:46;30.23;;;19.53;;
13698;SDS011;6921;53.642;9.956;2022-11-15T08:03:50;28.20;;;17.73;;
13698;SDS011;6921;53.642;9.956;2022-11-15T08:05:53;31.47;;;19.37;;
13698;SDS011;6921;53.642;9.956;2022-11-15T08:07:56;30.87;;;19.47;;
13698;SDS011;6921;53.642;9.956;2022-11-15T08:10:01;30.53;;;19.10;;
13698;SDS011;6921;53.642;9.956;2022-11-15T08:12:05;29.30;;;18.50;;
13698;SDS011;6921;53.642;9.956;2022-11-15T08:14:08;30.53;;;19.23;;
13698;SDS011;6921;53.642;9.956;2022-11-15T08:16:11;26.77;;;19.33;;
13698;SDS011;6921;53.642;9.956;2022-11-15T08:18:16;28.70;;;19.13;;
13698;SDS011;6921;53.642;9.956;2022-11-15T08:20:19;28.53;;;18.57;;
13698;SDS011;6921;53.642;9.956;2022-11-15T08:22:23;28.20;;;19.47;;
13698;SDS011;6921;53.642;9.956;2022-11-15T08:24:26;29.60;;;19.13;;
13698;SDS011;6921;53.642;9.956;2022-11-15T08:26:30;27.57;;;19.00;;
13698;SDS011;6921;53.642;9.956;2022-11-15T08:28:33;29.53;;;18.90;;
13698;SDS011;6921;53.642;9.956;2022-11-15T08:30:36;25.37;;;18.13;;
13698;SDS011;6921;53.642;9.956;2022-11-15T08:32:43;30.47;;;17.53;;
13698;SDS011;6921;53.642;9.956;2022-11-15T08:34:48;32.00;;;19.53;;
13698;SDS011;6921;53.642;9.956;2022-11-15T08:36:51;26.63;;;17.63;;
13698;SDS011;6921;53.642;9.956;2022-11-15T08:38:54;26.17;;;18.27;;
13698;SDS011;6921;53.642;9.956;2022-11-15T08:41:01;29.13;;;19.00;;
13698;SDS011;6921;53.642;9.956;2022-11-15T08:43:05;27.73;;;18.13;;
13698;SDS011;6921;53.642;9.956;2022-11-15T08:45:09;23.87;;;17.27;;
13698;SDS011;6921;53.642;9.956;2022-11-15T08:47:12;26.83;;;17.60;;
13698;SDS011;6921;53.642;9.956;2022-11-15T08:49:16;28.83;;;18.83;;
13698;SDS011;6921;53.642;9.956;2022-11-15T08:51:20;26.43;;;16.70;;
13698;SDS011;6921;53.642;9.956;2022-11-15T08:53:24;25.73;;;17.73;;
13698;SDS011;6921;53.642;9.956;2022-11-15T08:55:27;26.00;;;17.13;;
13698;SDS011;6921;53.642;9.956;2022-11-15T08:57:31;24.03;;;17.00;;
13698;SDS011;6921;53.642;9.956;2022-11-15T08:59:34;24.83;;;17.77;;
13698;SDS011;6921;53.642;9.956;2022-11-15T09:01:38;23.53;;;16.67;;
13698;SDS011;6921;53.642;9.956;2022-11-15T09:03:41;21.37;;;16.73;;
13698;SDS011;6921;53.642;9.956;2022-11-15T09:05:45;22.73;;;16.43;;
13698;SDS011;6921;53.642;9.956;2022-11-15T09:07:53;23.93;;;16.33;;
13698;SDS011;6921;53.642;9.956;2022-11-15T09:09:57;24.57;;;16.80;;
13698;SDS011;6921;53.642;9.956;2022-11-15T09:12:00;22.80;;;16.27;;
13698;SDS011;6921;53.642;9.956;2022-11-15T09:14:03;21.10;;;15.90;;
13698;SDS011;6921;53.642;9.956;2022-11-15T09:16:07;21.93;;;16.10;;
13698;SDS011;6921;53.642;9.956;2022-11-15T09:18:10;24.27;;;16.80;;
13698;SDS011;6921;53.642;9.956;2022-11-15T09:20:14;22.60;;;17.03;;
13698;SDS011;6921;53.642;9.956;2022-11-15T09:22:17;23.10;;;17.20;;
13698;SDS011;6921;53.642;9.956;2022-11-15T09:24:22;24.83;;;16.70;;
13698;SDS011;6921;53.642;9.956;2022-11-15T09:26:25;25.33;;;16.13;;
13698;SDS011;6921;53.642;9.956;2022-11-15T09:28:29;26.60;;;17.10;;
13698;SDS011;6921;53.642;9.956;2022-11-15T09:30:32;26.53;;;17.30;;
13698;SDS011;6921;53.642;9.956;2022-11-15T09:32:35;24.07;;;16.47;;
13698;SDS011;6921;53.642;9.956;2022-11-15T09:34:39;22.60;;;16.50;;
13698;SDS011;6921;53.642;9.956;2022-11-15T09:36:43;22.87;;;15.90;;
13698;SDS011;6921;53.642;9.956;2022-11-15T09:38:46;22.87;;;16.30;;
13698;SDS011;6921;53.642;9.956;2022-11-15T09:40:52;23.40;;;16.37;;
13698;SDS011;6921;53.642;9.956;2022-11-15T09:43:03;21.13;;;16.50;;
13698;SDS011;6921;53.642;9.956;2022-11-15T09:45:10;23.27;;;15.93;;
13698;SDS011;6921;53.642;9.956;2022-11-15T09:47:24;24.83;;;16.77;;
13698;SDS011;6921;53.642;9.956;2022-11-15T09:49:30;21.93;;;15.27;;
13698;SDS011;6921;53.642;9.956;2022-11-15T09:51:34;23.30;;;16.83;;
13698;SDS011;6921;53.642;9.956;2022-11-15T09:53:48;21.37;;;15.60;;
13698;SDS011;6921;53.642;9.956;2022-11-15T09:56:14;23.63;;;14.87;;
13698;SDS011;6921;53.642;9.956;2022-11-15T09:58:21;21.53;;;15.37;;
13698;SDS011;6921;53.642;9.956;2022-11-15T10:00:28;23.07;;;16.23;;
13698;SDS011;6921;53.642;9.956;2022-11-15T10:03:02;21.10;;;15.37;;
13698;SDS011;6921;53.642;9.956;2022-11-15T10:05:07;19.20;;;14.80;;
13698;SDS011;6921;53.642;9.956;2022-11-15T10:07:13;20.67;;;14.40;;
13698;SDS011;6921;53.642;9.956;2022-11-15T10:09:21;21.30;;;15.17;;
13698;SDS011;6921;53.642;9.956;2022-11-15T10:11:27;23.53;;;14.93;;
13698;SDS011;6921;53.642;9.956;2022-11-15T10:13:41;23.57;;;15.37;;
13698;SDS011;6921;53.642;9.956;2022-11-15T10:15:45;20.17;;;15.03;;
13698;SDS011;6921;53.642;9.956;2022-11-15T10:17:54;21.77;;;14.23;;
13698;SDS011;6921;53.642;9.956;2022-11-15T10:20:02;21.70;;;15.13;;
13698;SDS011;6921;53.642;9.956;2022-11-15T10:22:16;22.63;;;16.13;;
13698;SDS011;6921;53.642;9.956;2022-11-15T10:24:24;20.00;;;14.60;;
13698;SDS011;6921;53.642;9.956;2022-11-15T10:26:30;19.70;;;14.87;;
13698;SDS011;6921;53.642;9.956;2022-11-15T10:28:33;20.77;;;14.87;;
13698;SDS011;6921;53.642;9.956;2022-11-15T10:30:38;23.73;;;14.50;;
13698;SDS011;6921;53.642;9.956;2022-11-15T10:32:42;18.83;;;14.33;;
13698;SDS011;6921;53.642;9.956;2022-11-15T10:34:46;20.63;;;15.03;;
13698;SDS011;6921;53.642;9.956;2022-11-15T10:36:53;19.57;;;13.80;;
13698;SDS011;6921;53.642;9.956;2022-11-15T10:38:57;22.13;;;14.70;;
13698;SDS011;6921;53.642;9.956;2022-11-15T10:41:06;19.43;;;13.83;;
13698;SDS011;6921;53.642;9.956;2022-11-15T10:43:15;19.40;;;13.90;;
13698;SDS011;6921;53.642;9.956;2022-11-15T10:45:26;17.97;;;13.33;;
13698;SDS011;6921;53.642;9.956;2022-11-15T10:47:30;18.73;;;14.43;;
13698;SDS011;6921;53.642;9.956;2022-11-15T10:49:39;17.77;;;13.90;;
13698;SDS011;6921;53.642;9.956;2022-11-15T10:51:55;22.97;;;14.70;;
13698;SDS011;6921;53.642;9.956;2022-11-15T10:53:59;18.30;;;13.60;;
13698;SDS011;6921;53.642;9.956;2022-11-15T10:56:07;18.40;;;14.40;;
13698;SDS011;6921;53.642;9.956;2022-11-15T10:58:21;19.63;;;14.20;;
13698;SDS011;6921;53.642;9.956;2022-11-15T11:00:29;22.00;;;14.00;;
13698;SDS011;6921;53.642;9.956;2022-11-15T11:02:34;18.87;;;13.73;;
13698;SDS011;6921;53.642;9.956;2022-11-15T11:04:49;17.17;;;13.53;;
13698;SDS011;6921;53.642;9.956;2022-11-15T11:06:53;20.13;;;13.67;;
13698;SDS011;6921;53.642;9.956;2022-11-15T11:08:59;17.80;;;13.77;;
13698;SDS011;6921;53.642;9.956;2022-11-15T11:11:03;20.53;;;13.47;;
13698;SDS011;6921;53.642;9.956;2022-11-15T11:13:13;18.83;;;14.17;;
13698;SDS011;6921;53.642;9.956;2022-11-15T11:15:18;16.13;;;12.87;;
13698;SDS011;6921;53.642;9.956;2022-11-15T11:17:23;17.70;;;13.87;;
13698;SDS011;6921;53.642;9.956;2022-11-15T11:19:46;18.30;;;13.50;;
13698;SDS011;6921;53.642;9.956;2022-11-15T11:21:54;17.63;;;12.60;;
13698;SDS011;6921;53.642;9.956;2022-11-15T11:23:59;18.57;;;12.33;;
13698;SDS011;6921;53.642;9.956;2022-11-15T11:26:12;19.23;;;13.17;;
13698;SDS011;6921;53.642;9.956;2022-11-15T11:28:21;18.30;;;12.97;;
13698;SDS011;6921;53.642;9.956;2022-11-15T11:30:34;16.23;;;12.70;;
13698;SDS011;6921;53.642;9.956;2022-11-15T11:35:11;15.90;;;12.27;;
13698;SDS011;6921;53.642;9.956;2022-11-15T11:37:17;16.73;;;11.87;;
13698;SDS011;6921;53.642;9.956;2022-11-15T11:39:24;15.50;;;11.87;;
13698;SDS011;6921;53.642;9.956;2022-11-15T11:41:38;14.03;;;11.07;;
13698;SDS011;6921;53.642;9.956;2022-11-15T11:43:47;14.37;;;11.63;;
13698;SDS011;6921;53.642;9.956;2022-11-15T11:48:22;16.37;;;11.17;;
13698;SDS011;6921;53.642;9.956;2022-11-15T11:50:26;14.73;;;11.13;;
13698;SDS011;6921;53.642;9.956;2022-11-15T11:52:31;16.13;;;10.90;;
13698;SDS011;6921;53.642;9.956;2022-11-15T11:54:38;13.57;;;10.60;;
13698;SDS011;6921;53.642;9.956;2022-11-15T11:56:43;14.07;;;10.33;;
13698;SDS011;6921;53.642;9.956;2022-11-15T11:58:47;13.53;;;10.33;;
13698;SDS011;6921;53.642;9.956;2022-11-15T12:00:51;14.67;;;10.33;;
13698;SDS011;6921;53.642;9.956;2022-11-15T12:03:00;14.47;;;11.07;;
13698;SDS011;6921;53.642;9.956;2022-11-15T12:05:09;13.93;;;10.60;;
13698;SDS011;6921;53.642;9.956;2022-11-15T12:07:15;15.27;;;10.97;;
13698;SDS011;6921;53.642;9.956;2022-11-15T12:09:21;13.57;;;10.67;;
13698;SDS011;6921;53.642;9.956;2022-11-15T12:11:28;13.97;;;10.97;;
13698;SDS011;6921;53.642;9.956;2022-11-15T12:13:32;13.77;;;11.00;;
13698;SDS011;6921;53.642;9.956;2022-11-15T12:15:39;13.30;;;10.27;;
13698;SDS011;6921;53.642;9.956;2022-11-15T12:17:44;15.87;;;10.60;;
13698;SDS011;6921;53.642;9.956;2022-11-15T12:19:49;15.87;;;11.20;;
13698;SDS011;6921;53.642;9.956;2022-11-15T12:21:54;11.93;;;10.30;;
13698;SDS011;6921;53.642;9.956;2022-11-15T12:24:00;15.47;;;11.27;;
13698;SDS011;6921;53.642;9.956;2022-11-15T12:26:07;13.53;;;11.40;;
13698;SDS011;6921;53.642;9.956;2022-11-15T12:28:12;16.08;;;11.73;;
13698;SDS011;6921;53.642;9.956;2022-11-15T12:30:18;12.73;;;10.43;;